Station: Jacup  

  Atmospheric Gas Attenuation - ITU Rec 676-11   ----------------- dB/100km -----------------
Date Time Temp RH % AH g/m3 Dew Point Wind Direction Speed kph Gust kph Barometer mB Rainfall Since 9am 24GHz 47GHz 76GHz 122GHz 134GHz 241GHz
08/05 09:30 14.9 65 8.28 8.4 26 35 1034.6 0 18.8 25.9 38.9 101.8 94.5 324.9
08/05 09:20 14.5 67 8.33 8.5 24 28 1034.8 0 19.0 26.1 39.3 102.9 95.7 328.9
08/05 09:10 14.1 69 8.37 8.5 22 30 1034.9 0 19.1 26.2 39.7 103.8 96.7 332.4
08/05 09:00 14 71 8.56 8.8 24 32 1034.9 0 19.5 26.6 40.5 106.0 99.4 341.7
08/05 08:50 13.6 72 8.47 8.7 24 28 1034.9 0 19.3 26.6 40.3 105.6 98.7 339.2
08/05 08:40 13.4 74 8.6 8.9 19 24 1034.9 0 19.6 26.8 41.0 107.3 100.7 346.2
08/05 08:30 12.7 75 8.35 8.4 20 28 1034.9 0 19.1 26.6 40.3 105.5 98.2 337.5
08/05 08:20 12.4 77 8.41 8.5 20 24 1034.9 0 19.2 26.8 40.7 106.5 99.4 341.6
08/05 08:10 12 79 8.42 8.5 17 20 1034.9 0 19.3 27.0 41.0 107.2 100.1 343.8
08/05 08:00 11.5 81 8.37 8.4 17 24 1034.8 0 19.2 27.0 41.0 107.3 100.0 343.6
08/05 07:50 11 82 8.21 8 17 19 1034.7 0 18.9 26.9 40.6 106.2 98.5 338.1
08/05 07:40 10.6 84 8.2 8 15 20 1034.6 0 18.9 27.0 40.7 106.6 98.8 339.3
08/05 07:30 10.5 85 8.25 8.1 15 20 1034.5 0 19.0 27.1 41.0 107.3 99.6 342.1
08/05 07:20 10 86 8.08 7.8 15 17 1034.3 0 18.6 27.0 40.5 106.1 97.9 336.0
08/05 07:10 9.6 86 7.88 7.4 17 19 1034.3 0 18.2 26.8 39.9 104.4 95.6 328.0
08/05 07:00 9.8 86 7.98 7.6 17 24 1034.3 0 18.4 26.9 40.2 105.2 96.8 332.0
08/05 06:50 9.8 86 7.98 7.6 15 19 1034.3 0 18.4 26.9 40.2 105.2 96.8 332.0
08/05 06:40 9.9 85 7.94 7.5 15 17 1034.2 0 18.3 26.8 40.0 104.6 96.1 329.6
08/05 06:30 10.1 85 8.04 7.7 17 22 1034 0 18.5 26.9 40.3 105.4 97.2 333.5
08/05 06:20 10.1 84 7.95 7.5 17 22 1034 0 18.4 26.7 39.9 104.4 96.0 329.2
08/05 06:10 10.3 84 8.05 7.7 17 22 1033.9 0 18.6 26.8 40.2 105.3 97.1 333.1
08/05 06:00 10.2 84 8 7.6 15 20 1033.8 0 18.5 26.8 40.1 104.8 96.5 331.1
08/05 05:50 10.2 84 8 7.6 17 20 1033.8 0 18.5 26.8 40.1 104.8 96.5 331.1
08/05 05:40 10.1 84 7.95 7.5 15 20 1033.7 0 18.4 26.7 39.9 104.4 95.9 329.1
08/05 05:30 10.1 84 7.95 7.5 17 24 1033.6 0 18.4 26.7 39.9 104.4 95.9 329.1
08/05 05:20 9.9 86 8.03 7.7 19 20 1033.7 0 18.5 26.9 40.4 105.6 97.3 333.8
08/05 05:10 9.8 87 8.07 7.7 17 20 1033.7 0 18.6 27.0 40.6 106.2 98.0 336.2
08/05 05:00 9.6 87 7.97 7.5 17 22 1033.5 0 18.4 26.9 40.2 105.3 96.8 332.1
08/05 04:50 9.5 88 8.01 7.6 17 20 1033.5 0 18.5 27.0 40.5 105.9 97.5 334.5
08/05 04:40 9.5 88 8.01 7.6 17 20 1033.4 0 18.5 27.0 40.5 105.9 97.5 334.5
08/05 04:30 9.5 88 8.01 7.6 19 24 1033.3 0 18.5 27.0 40.5 105.8 97.5 334.5
08/05 04:20 9.5 88 8.01 7.6 17 22 1033.3 0 18.5 27.0 40.5 105.8 97.5 334.5
08/05 04:10 9.5 88 8.01 7.6 17 20 1033.3 0 18.5 27.0 40.5 105.8 97.5 334.5
08/05 04:00 9.7 88 8.11 7.8 17 24 1033.2 0 18.7 27.1 40.8 106.7 98.6 338.4
08/05 03:50 9.7 88 8.11 7.8 19 20 1033.4 0 18.7 27.1 40.8 106.7 98.6 338.5
08/05 03:40 9.6 88 8.06 7.7 19 24 1033.3 0 18.6 27.0 40.6 106.3 98.1 336.5
08/05 03:30 9.5 88 8.01 7.6 19 24 1033.2 0 18.5 27.0 40.5 105.8 97.5 334.4
08/05 03:20 9.4 88 7.96 7.5 17 20 1033.4 0 18.4 26.9 40.3 105.4 96.9 332.5
08/05 03:10 9.6 87 7.97 7.5 19 20 1033.4 0 18.4 26.9 40.2 105.3 96.8 332.1
08/05 03:00 9.6 87 7.97 7.5 19 22 1033.3 0 18.4 26.9 40.2 105.3 96.8 332.1
08/05 02:50 9.8 86 7.98 7.6 20 24 1033.4 0 18.4 26.8 40.2 105.1 96.7 331.7
08/05 02:40 9.9 86 8.03 7.7 17 20 1033.3 0 18.5 26.9 40.3 105.5 97.3 333.7
08/05 02:30 10 86 8.08 7.8 19 26 1033.3 0 18.6 26.9 40.5 106.0 97.8 335.7
08/05 02:20 10.1 86 8.13 7.9 17 24 1033.4 0 18.7 27.0 40.7 106.4 98.4 337.7
08/05 02:10 10 86 8.08 7.8 15 17 1033.3 0 18.6 26.9 40.5 106.0 97.8 335.7
08/05 02:00 9.8 86 7.98 7.6 17 24 1033.1 0 18.4 26.8 40.2 105.1 96.7 331.7
08/05 01:50 9.5 86 7.83 7.3 17 20 1033.2 0 18.1 26.7 39.7 103.8 95.0 325.7
08/05 01:40 9.2 87 7.77 7.2 15 19 1033.3 0 18.0 26.6 39.6 103.5 94.5 324.1
08/05 01:30 8.8 89 7.75 7.1 15 19 1033.2 0 18.0 26.7 39.7 103.8 94.7 324.7
08/05 01:20 8.4 91 7.72 7 15 17 1033.3 0 17.9 26.8 39.8 104.0 94.8 325.0
08/05 01:10 7.9 91 7.48 6.5 13 15 1033.3 0 17.4 26.5 39.0 102.0 92.1 315.3
08/05 01:00 7.8 91 7.43 6.4 13 15 1033.2 0 17.3 26.5 38.9 101.6 91.5 313.2
08/05 00:50 7.9 91 7.48 6.5 11 13 1033.3 0 17.4 26.5 39.0 102.0 92.1 315.3
08/05 00:40 7.9 90 7.4 6.4 13 13 1033.2 0 17.3 26.4 38.7 101.1 91.0 311.4
08/05 00:30 8 90 7.44 6.5 11 13 1033.1 0 17.4 26.4 38.8 101.4 91.4 312.9
08/05 00:20 8.3 89 7.5 6.6 11 13 1033.1 0 17.5 26.5 38.9 101.7 91.9 314.6
08/05 00:10 8.8 89 7.75 7.1 11 13 1033.2 0 18.0 26.7 39.7 103.8 94.7 324.7
08/05 00:00 9.2 89 7.95 7.5 13 19 1033.2 0 18.4 26.9 40.4 105.6 97.0 332.8
07/05 23:50 9.2 88 7.86 7.3 15 17 1033.3 0 18.2 26.8 40.0 104.6 95.8 328.4
07/05 23:40 9.5 87 7.92 7.4 13 15 1033.2 0 18.3 26.8 40.1 104.8 96.2 330.1
07/05 23:30 9.8 87 8.07 7.7 15 20 1033 0 18.6 27.0 40.5 106.1 97.9 336.0
07/05 23:20 9.9 86 8.03 7.7 15 17 1033.2 0 18.5 26.9 40.3 105.5 97.2 333.7
07/05 23:10 10 86 8.08 7.8 17 20 1033.2 0 18.6 26.9 40.5 105.9 97.8 335.7
07/05 23:00 10.2 85 8.09 7.8 17 20 1033.2 0 18.7 26.9 40.4 105.8 97.7 335.3
07/05 22:50 10.4 85 8.19 8 17 20 1033.4 0 18.9 27.0 40.8 106.7 98.8 339.3
07/05 22:40 10.6 84 8.2 8 19 20 1033.5 0 18.9 27.0 40.7 106.5 98.7 339.0
07/05 22:30 10.8 84 8.3 8.2 19 26 1033.4 0 19.1 27.1 41.0 107.3 99.8 342.9
07/05 22:20 10.9 84 8.36 8.3 20 26 1033.4 0 19.2 27.1 41.2 107.9 100.5 345.4
07/05 22:10 10.9 84 8.36 8.3 22 26 1033.4 0 19.2 27.1 41.2 107.9 100.5 345.4
07/05 22:00 10.9 85 8.46 8.5 20 28 1033.4 0 19.4 27.3 41.6 109.0 101.9 350.2
07/05 21:50 10.8 86 8.5 8.6 20 26 1033.5 0 19.5 27.4 41.9 109.6 102.6 352.6
07/05 21:40 10.9 86 8.56 8.7 19 20 1033.6 0 19.6 27.5 42.1 110.1 103.3 355.1
07/05 21:30 11 85 8.51 8.6 17 22 1033.4 0 19.5 27.4 41.8 109.4 102.5 352.2
07/05 21:20 11.2 85 8.62 8.8 19 22 1033.5 0 19.7 27.5 42.2 110.4 103.8 356.7
07/05 21:10 11.3 84 8.57 8.7 19 24 1033.5 0 19.6 27.4 41.9 109.7 102.9 353.8
07/05 21:00 11.4 84 8.62 8.8 20 26 1033.3 0 19.7 27.4 42.0 110.1 103.5 355.7
07/05 20:50 11.5 84 8.68 8.9 20 22 1033.4 0 19.9 27.5 42.2 110.6 104.2 358.2
07/05 20:40 11.7 83 8.68 8.9 17 20 1033.4 0 19.8 27.4 42.1 110.3 103.9 357.2
07/05 20:30 11.8 82 8.63 8.8 17 22 1033.3 0 19.7 27.3 41.9 109.6 103.1 354.3
07/05 20:20 12 82 8.74 9 19 22 1033.3 0 20.0 27.4 42.2 110.6 104.3 358.7
07/05 20:10 12 81 8.63 8.8 19 20 1033.3 0 19.7 27.2 41.8 109.4 102.8 353.4
07/05 20:00 12.2 80 8.63 8.9 19 24 1033.2 0 19.7 27.2 41.6 109.1 102.5 352.5
07/05 19:50 12.4 79 8.63 8.9 17 20 1033.3 0 19.7 27.1 41.5 108.8 102.3 351.6
07/05 19:40 12.6 78 8.63 8.9 17 19 1033.3 0 19.7 27.1 41.4 108.5 102.0 350.7
07/05 19:30 12.9 77 8.68 9 19 26 1033.3 0 19.8 27.1 41.5 108.7 102.3 351.8
07/05 19:20 13.2 78 8.96 9.5 17 20 1033.4 0 20.4 27.4 42.5 111.3 105.7 363.8
07/05 19:10 13.5 79 9.24 9.9 17 20 1033.3 0 20.9 27.8 43.5 114.0 109.1 375.8
07/05 19:00 13.5 80 9.36 10.1 17 26 1033.2 0 21.2 28.0 44.0 115.4 110.8 381.5
07/05 18:50 13.4 81 9.42 10.2 17 19 1033.1 0 21.3 28.1 44.3 116.2 111.7 384.9
07/05 18:40 13.9 80 9.59 10.5 20 22 1033 0 21.7 28.3 44.7 117.3 113.4 390.6
07/05 18:30 14.3 78 9.58 10.5 17 24 1032.8 0 21.6 28.1 44.5 116.6 112.6 388.1
07/05 18:20 14.3 78 9.58 10.5 17 20 1032.8 0 21.6 28.1 44.5 116.6 112.6 388.1
07/05 18:10 14.4 78 9.64 10.6 15 19 1032.7 0 21.8 28.2 44.6 117.1 113.3 390.5
07/05 18:00 14.6 77 9.64 10.6 17 24 1032.5 0 21.7 28.1 44.5 116.8 113.0 389.4
07/05 17:50 14.6 77 9.64 10.6 15 17 1032.5 0 21.7 28.1 44.5 116.8 113.0 389.4
07/05 17:40 14.4 77 9.52 10.4 15 19 1032.5 0 21.5 28.0 44.1 115.7 111.6 384.6
07/05 17:30 14.3 75 9.21 9.9 17 22 1032.5 0 20.8 27.5 42.9 112.4 107.5 370.3
07/05 17:20 14.7 72 9.07 9.7 15 17 1032.5 0 20.5 27.1 42.1 110.3 105.1 361.8
07/05 17:10 15.3 69 9.01 9.7 20 24 1032.7 0 20.4 26.9 41.6 108.9 103.5 356.3
07/05 17:00 14.9 67 8.54 8.8 11 15 1032.6 0 19.4 26.2 39.9 104.4 97.8 336.3

Last Refresh: 08-May-2026 11:05:09

Bureau of Meteorology